Steptoe Valley North, Nevada Weather observations

Data are for 10 minute period ending at time listed.
 Day   Time   Solar   Ave.   Ave.  Ave.  Vector  Max.   Baro.   Total    
  of    of     Rad.   Air    Rel.  Wind   Wind   Wind  Press.  Precip.   
Year   Day            Temp.  Hum.  Speed  Dir.   Gust                    
2016   (PST)  Kw/m2    F      %     mph   deg.    mph    mb.     in.     
-------------------------------------------------------------------------
 148   12:00   0.33   60.6    42    5.9   344    11.9   818.3    0.00 
 148   12:10   0.49   60.9    40    3.8   207    14.2   818.4    0.00 
 148   12:20   0.69   62.0    38    3.2   276    12.8   818.3    0.00 
 148   12:30   0.69   63.4    35    8.3   259    14.2   818.1    0.00 
 148   12:40   0.82   62.7    36    7.5   277    13.7   818.0    0.00 
 148   12:50   0.73   63.6    35    5.8   256    12.6   817.9    0.00 
 148   13:00   0.62   65.4    31    3.4   217     9.3   817.7    0.00 
 148   13:10   0.43   63.7    35    6.1   240    11.4   817.7    0.00 
 148   13:20   0.57   62.9    35    8.8   282    14.1   817.6    0.00 
 148   13:30   0.87   65.3    32    9.9   266    25.8   817.5    0.00 
 148   13:40   0.51   63.9    32    4.0   307     7.4   817.5    0.00 
 148   13:50   0.54   65.2    33    8.3   250    13.9   817.4    0.00 
 148   14:00   0.35   63.5    35    5.1   293    11.2   817.4    0.00 
 148   14:10   0.55   63.5    36    8.4   282    14.7   817.2    0.00 
 148   14:20   0.53   64.3    36    5.9    27    12.7   817.2    0.00 
 148   14:30   0.25   63.9    33    3.4   302    12.7   817.2    0.00 
 148   14:40   0.56   63.5    36    6.6   264    13.4   817.2    0.00 
 148   14:50   0.54   65.4    30   11.3   244    18.9   817.1    0.00 
 148   15:00   0.81   66.4    30    8.8   285    13.6   817.1    0.00 
 148   15:10   0.73   67.1    28    7.5   278    14.4   817.0    0.00 
 148   15:20   0.70   66.9    26    8.8   270    14.0   817.0    0.00 
 148   15:30   0.68   67.2    26    7.4   257    15.3   816.9    0.00 
 148   15:40   0.50   65.9    29    9.0   295    16.0   816.9    0.00 
 148   15:50   0.40   65.1    28    9.0   266    21.3   816.9    0.00 
 148   16:00   0.57   66.3    26    8.1   274    18.6   816.8    0.00 
 148   16:10   0.31   65.2    26   11.0   295    18.6   816.9    0.00 
 148   16:20   0.49   64.9    28    9.0   299    15.3   816.9    0.00 
 148   16:30   0.43   65.9    26   11.4   289    17.3   816.8    0.00 
 148   16:40   0.47   65.7    26   11.6   305    18.0   816.8    0.00 
 148   16:50   0.39   65.4    28   10.8   308    16.2   816.8    0.00 
 148   17:00   0.32   64.8    28    9.9   305    15.9   816.8    0.00 
 148   17:10   0.25   63.8    29    9.4   304    14.4   816.9    0.00 
 148   17:20   0.20   63.4    29   10.8   302    16.4   816.9    0.00 
 148   17:30   0.22   63.4    30    8.4   313    16.1   817.0    0.00 
 148   17:40   0.14   62.8    30    7.0   307    10.7   817.1    0.00 
 148   17:50   0.10   61.7    30    8.1   291    13.0   817.1    0.00 
 148   18:00   0.14   61.4    33    7.5   308    11.3   817.1    0.00 
 148   18:10   0.12   61.2    35    6.5   324     9.6   817.1    0.00 
 148   18:20   0.09   59.7    38    6.9   321    11.3   817.2    0.00 
 148   18:30   0.06   58.5    38    8.3   323    12.3   817.3    0.00 
 148   18:40   0.04   56.9    42    7.2   332    11.1   817.4    0.00 
 148   18:50   0.02   54.4    51    6.0   343     7.9   817.5    0.00 
 148   19:00   0.01   51.4    60    4.7   355     6.3   817.4    0.00 
 148   19:10   0.00   49.3    64    4.7     0     5.2   817.3    0.00 
 148   19:20   0.00   47.2    69    4.9    17     6.1   817.2    0.00 
 148   19:30   0.00   46.2    70    4.7    35     5.6   817.2    0.00 
 148   19:40   0.00   46.0    72    4.6    66     6.3   817.4    0.00 
 148   19:50   0.00   48.0    69    3.4    72    10.6   817.5    0.00 
 148   20:00   0.00   50.6    62    4.5    54    10.7   817.6    0.00 
 148   20:10   0.00   51.9    59    5.9    56    10.8   817.7    0.00 
 148   20:20   0.00   48.1    68    5.1    35     6.9   817.9    0.00 
 148   20:30   0.00   47.9    69    5.9    59     8.3   818.0    0.00 
 148   20:40   0.00   48.4    69    5.2    57     7.4   818.1    0.00 
 148   20:50   0.00   49.4    66    5.0    68     7.8   818.1    0.00 
 148   21:00   0.00   49.3    66    5.2    69     7.6   818.1    0.00 
 148   21:10   0.00   47.7    70    3.8    48     5.4   818.1    0.00 
 148   21:20   0.00   45.0    76    4.6     7     6.6   818.2    0.00 
 148   21:30   0.00   43.3    81    5.3     0     6.9   818.3    0.00 
 148   21:40   0.00   44.2    81    6.2    18     8.1   818.4    0.00 
 148   21:50   0.00   45.4    79    6.0    28     7.9   818.5    0.00 
 148   22:00   0.00   46.5    77    6.0    32     7.5   818.6    0.00 
 148   22:10   0.00   46.7    76    6.8    20     9.2   818.6    0.00 
 148   22:20   0.00   47.1    75    7.0    18    10.2   818.7    0.00 
 148   22:30   0.00   46.3    79    8.0   341    10.5   818.9    0.00 
 148   22:40   0.00   47.0    74    7.8   334    11.2   818.9    0.00 
 148   22:50   0.00   47.0    73    7.7   332    10.1   818.9    0.00 
 148   23:00   0.00   46.3    76    6.8   340    11.5   818.9    0.00 
 148   23:10   0.00   45.7    77    7.6   342    11.7   819.0    0.00 
 148   23:20   0.00   45.3    78    6.9   348    10.0   819.0    0.00 
 148   23:30   0.00   44.5    80    7.3   349    10.2   819.0    0.00 
 148   23:40   0.00   42.2    85    6.0   354     7.5   819.0    0.00 
 148   23:50   0.00   41.7    86    6.2   352     8.8   819.2    0.00 
 149    0:00   0.00   41.4    87    6.0     3     7.9   819.3    0.00 
 149    0:10   0.00   41.1    87    5.7     1     7.6   819.3    0.00 
 149    0:20   0.00   40.3    88    5.5    19     7.6   819.4    0.00 
 149    0:30   0.00   39.1    88    4.2    43     5.6   819.5    0.00 
 149    0:40   0.00   38.9    90    4.1    61     5.8   819.6    0.00 
 149    0:50   0.00   39.4    90    4.9    60     6.1   819.5    0.00 
 149    1:00   0.00   39.8    88    4.3    56     5.9   819.5    0.00 
 149    1:10   0.00   39.2    87    4.4    55     5.1   819.5    0.00 
 149    1:20   0.00   38.1    87    4.2    54     5.1   819.5    0.00 
 149    1:30   0.00   36.2    89    4.3    35     5.0   819.6    0.00 
 149    1:40   0.00   35.6    91    5.2    28     5.8   819.7    0.00 
 149    1:50   0.00   36.9    91    4.8    32     6.6   819.7    0.00 
 149    2:00   0.00   37.5    89    4.6    33     5.9   819.7    0.00 
 149    2:10   0.00   37.0    88    4.6    40     5.5   819.7    0.00 
 149    2:20   0.00   35.9    90    3.9    44     4.6   819.7    0.00 
 149    2:30   0.00   36.5    91    3.6    72     5.1   819.7    0.00 
 149    2:40   0.00   36.9    91    5.0    64     6.0   819.8    0.00 
 149    2:50   0.00   36.9    90    4.6    56     5.6   819.7    0.00 
 149    3:00   0.00   36.5    90    4.7    56     5.5   819.8    0.00 
 149    3:10   0.00   36.5    91    4.3    65     5.2   819.9    0.00 
 149    3:20   0.00   35.7    90    4.0    51     5.5   819.9    0.00 
 149    3:30   0.00   34.4    91    4.8    42     5.9   819.9    0.00 
 149    3:40   0.00   34.6    92    4.5    34     5.6   819.9    0.00 
 149    3:50   0.00   34.8    92    4.6    33     5.9   820.0    0.00 
 149    4:00   0.00   34.5    92    4.0    54     5.3   820.1    0.00 
 149    4:10   0.00   35.5    92    3.2    77     4.2   820.3    0.00 
 149    4:20   0.01   36.1    93    4.7    76     6.4   820.3    0.00 
 149    4:30   0.02   36.9    91    5.0    62     6.9   820.4    0.00 
 149    4:40   0.04   37.1    91    4.6    69     6.1   820.4    0.00 
 149    4:50   0.06   39.7    88    5.1    52     6.5   820.4    0.00 
 149    5:00   0.08   40.8    84    4.8    46     6.1   820.6    0.00 
 149    5:10   0.11   40.6    85    3.4    33     5.6   820.7    0.00 
 149    5:20   0.14   41.1    86    3.5    46     4.6   820.7    0.00 
 149    5:30   0.16   42.9    84    3.6    52     4.9   820.7    0.00 
 149    5:40   0.19   44.9    80    4.7    51     6.1   820.6    0.00 
 149    5:50   0.23   46.3    78    3.5    40     5.4   820.6    0.00 
 149    6:00   0.26   47.5    76    4.0    29     5.8   820.6    0.00 
 149    6:10   0.29   48.5    75    3.4    13     5.0   820.5    0.00 
 149    6:20   0.32   49.1    73    3.7   359     4.9   820.5    0.00 
 149    6:30   0.36   49.7    70    3.8   351     5.4   820.6    0.00 
 149    6:40   0.39   50.3    68    3.6   353     5.3   820.6    0.00 
 149    6:50   0.42   50.9    69    3.0   331     5.6   820.6    0.00 
 149    7:00   0.46   51.5    65    2.9   321     5.3   820.7    0.00 
 149    7:10   0.49   52.2    63    3.0   344     4.7   820.7    0.00 
 149    7:20   0.52   53.6    62    2.0   335     4.3   820.7    0.00 
 149    7:30   0.56   54.2    60    2.2     1     4.6   820.8    0.00 
 149    7:40   0.59   55.8    57    1.3   298     4.5   820.8    0.00 
 149    7:50   0.62   55.1    59    2.2   276     6.3   820.8    0.00 
 149    8:00   0.65   55.4    59    2.5   300     5.8   820.8    0.00 
 149    8:10   0.68   56.1    58    2.2   297     5.3   820.7    0.00 
 149    8:20   0.71   57.2    56    2.0   314     4.5   820.7    0.00 
 149    8:30   0.73   58.0    55    2.1   248     4.5   820.7    0.00 
 149    8:40   0.76   58.5    52    2.3   231     4.7   820.8    0.00 
 149    8:50   0.78   59.9    50    2.2   154     4.2   820.8    0.00 
 149    9:00   0.81   60.9    47    1.7   210     4.0   820.7    0.00 
 149    9:10   0.83   61.0    47    2.1   207     5.3   820.8    0.00 
 149    9:20   0.85   60.9    51    2.2   221     3.9   820.8    0.00 
 149    9:30   0.87   60.8    52    2.7   330     7.3   820.9    0.00 
 149    9:40   0.89   60.4    51    1.9    54     6.1   820.8    0.00 
 149    9:50   0.91   61.4    47    2.1   337     5.6   820.8    0.00 
 149   10:00   0.93   61.9    47    1.7    15     4.5   820.8    0.00 
 149   10:10   0.94   62.7    48    2.7    48     5.8   820.8    0.00 
 149   10:20   0.96   62.6    48    3.2   276     7.0   820.8    0.00 
 149   10:30   0.97   64.4    46    2.4   188     4.8   820.8    0.00 
 149   10:40   0.98   63.7    43    3.0   317     5.3   820.8    0.00 
 149   10:50   0.99   65.0    35    3.2   155     8.9   820.7    0.00 
 149   11:00   1.00   64.8    35    2.5   133     6.1   820.6    0.00 
 149   11:10   1.02   66.4    36    2.9   338     9.9   820.5    0.00 
 149   11:20   1.03   66.0    35    3.8   216    10.1   820.4    0.00 
 149   11:30   0.98   66.8    35    3.8   259     7.4   820.3    0.00 
 149   11:40   0.69   66.3    36    4.2   198     9.2   820.3    0.00 
 149   11:50   0.85   65.7    32    2.8    49     6.6   820.3    0.00 

Return to Steptoe Valley North graphs page.


Western Regional Climate Center,wrcc@dri.edu